sensor_id;sensor_type;location;lat;lon;timestamp;P1;durP1;ratioP1;P2;durP2;ratioP2
27722;SDS011;15123;-37.794;175.246;2023-04-05T00:01:21;5.25;;;0.90;;
27722;SDS011;15123;-37.794;175.246;2023-04-05T00:03:55;5.15;;;0.82;;
27722;SDS011;15123;-37.794;175.246;2023-04-05T00:06:28;5.00;;;1.13;;
27722;SDS011;15123;-37.794;175.246;2023-04-05T00:09:00;4.20;;;0.68;;
27722;SDS011;15123;-37.794;175.246;2023-04-05T00:11:32;3.35;;;0.65;;
27722;SDS011;15123;-37.794;175.246;2023-04-05T00:14:03;4.50;;;1.08;;
27722;SDS011;15123;-37.794;175.246;2023-04-05T00:16:34;5.47;;;0.77;;
27722;SDS011;15123;-37.794;175.246;2023-04-05T00:19:06;4.00;;;1.02;;
27722;SDS011;15123;-37.794;175.246;2023-04-05T00:21:40;4.88;;;0.88;;
27722;SDS011;15123;-37.794;175.246;2023-04-05T00:24:11;4.65;;;0.77;;
27722;SDS011;15123;-37.794;175.246;2023-04-05T00:26:44;3.53;;;0.70;;
27722;SDS011;15123;-37.794;175.246;2023-04-05T00:29:15;2.45;;;0.57;;
27722;SDS011;15123;-37.794;175.246;2023-04-05T00:31:48;3.83;;;0.60;;
27722;SDS011;15123;-37.794;175.246;2023-04-05T00:36:50;4.27;;;0.73;;
27722;SDS011;15123;-37.794;175.246;2023-04-05T00:39:22;3.00;;;0.70;;
27722;SDS011;15123;-37.794;175.246;2023-04-05T00:41:53;4.50;;;0.75;;
27722;SDS011;15123;-37.794;175.246;2023-04-05T00:44:25;2.95;;;0.52;;
27722;SDS011;15123;-37.794;175.246;2023-04-05T00:46:58;2.78;;;0.70;;
27722;SDS011;15123;-37.794;175.246;2023-04-05T00:49:31;3.53;;;1.00;;
27722;SDS011;15123;-37.794;175.246;2023-04-05T00:52:03;3.60;;;0.90;;
27722;SDS011;15123;-37.794;175.246;2023-04-05T00:54:35;4.68;;;1.20;;
27722;SDS011;15123;-37.794;175.246;2023-04-05T00:57:08;4.32;;;0.95;;
27722;SDS011;15123;-37.794;175.246;2023-04-05T00:59:39;5.30;;;0.90;;
27722;SDS011;15123;-37.794;175.246;2023-04-05T01:02:33;4.03;;;1.10;;
27722;SDS011;15123;-37.794;175.246;2023-04-05T01:05:03;3.33;;;0.75;;
27722;SDS011;15123;-37.794;175.246;2023-04-05T01:10:38;2.83;;;0.68;;
27722;SDS011;15123;-37.794;175.246;2023-04-05T01:13:16;2.75;;;0.75;;
27722;SDS011;15123;-37.794;175.246;2023-04-05T01:15:48;5.38;;;0.90;;
27722;SDS011;15123;-37.794;175.246;2023-04-05T01:18:19;3.65;;;0.80;;
27722;SDS011;15123;-37.794;175.246;2023-04-05T01:20:51;4.85;;;1.35;;
27722;SDS011;15123;-37.794;175.246;2023-04-05T01:23:52;5.82;;;0.82;;
27722;SDS011;15123;-37.794;175.246;2023-04-05T01:26:51;3.95;;;0.80;;
27722;SDS011;15123;-37.794;175.246;2023-04-05T01:37:49;4.53;;;0.80;;
27722;SDS011;15123;-37.794;175.246;2023-04-05T01:40:26;3.80;;;0.70;;
27722;SDS011;15123;-37.794;175.246;2023-04-05T01:43:01;3.25;;;0.80;;
27722;SDS011;15123;-37.794;175.246;2023-04-05T01:45:34;3.08;;;0.60;;
27722;SDS011;15123;-37.794;175.246;2023-04-05T01:48:05;4.65;;;0.60;;
27722;SDS011;15123;-37.794;175.246;2023-04-05T01:50:37;4.75;;;0.77;;
27722;SDS011;15123;-37.794;175.246;2023-04-05T01:53:08;3.70;;;0.70;;
27722;SDS011;15123;-37.794;175.246;2023-04-05T01:55:41;3.92;;;0.90;;
27722;SDS011;15123;-37.794;175.246;2023-04-05T01:58:13;5.38;;;0.85;;
27722;SDS011;15123;-37.794;175.246;2023-04-05T02:03:15;3.85;;;1.00;;
27722;SDS011;15123;-37.794;175.246;2023-04-05T02:05:46;4.70;;;0.90;;
27722;SDS011;15123;-37.794;175.246;2023-04-05T02:08:17;5.18;;;1.02;;
27722;SDS011;15123;-37.794;175.246;2023-04-05T02:10:51;5.60;;;1.15;;
27722;SDS011;15123;-37.794;175.246;2023-04-05T02:13:23;6.45;;;1.35;;
27722;SDS011;15123;-37.794;175.246;2023-04-05T02:15:55;3.95;;;0.82;;
27722;SDS011;15123;-37.794;175.246;2023-04-05T02:18:26;4.57;;;0.90;;
27722;SDS011;15123;-37.794;175.246;2023-04-05T02:21:02;3.88;;;0.88;;
27722;SDS011;15123;-37.794;175.246;2023-04-05T02:23:36;5.05;;;1.08;;
27722;SDS011;15123;-37.794;175.246;2023-04-05T02:26:08;5.15;;;0.90;;
27722;SDS011;15123;-37.794;175.246;2023-04-05T02:28:39;5.28;;;1.00;;
27722;SDS011;15123;-37.794;175.246;2023-04-05T02:33:41;4.07;;;0.73;;
27722;SDS011;15123;-37.794;175.246;2023-04-05T02:36:13;6.30;;;0.90;;
27722;SDS011;15123;-37.794;175.246;2023-04-05T02:38:45;5.65;;;1.00;;
27722;SDS011;15123;-37.794;175.246;2023-04-05T02:41:16;3.75;;;0.70;;
27722;SDS011;15123;-37.794;175.246;2023-04-05T02:43:49;5.38;;;0.80;;
27722;SDS011;15123;-37.794;175.246;2023-04-05T02:46:20;3.25;;;0.70;;
27722;SDS011;15123;-37.794;175.246;2023-04-05T02:48:52;5.22;;;0.80;;
27722;SDS011;15123;-37.794;175.246;2023-04-05T02:51:25;4.65;;;0.80;;
27722;SDS011;15123;-37.794;175.246;2023-04-05T02:53:57;4.65;;;0.73;;
27722;SDS011;15123;-37.794;175.246;2023-04-05T02:56:32;5.53;;;1.00;;
27722;SDS011;15123;-37.794;175.246;2023-04-05T02:59:10;3.83;;;0.70;;
27722;SDS011;15123;-37.794;175.246;2023-04-05T03:01:44;3.88;;;0.70;;
27722;SDS011;15123;-37.794;175.246;2023-04-05T03:04:22;4.43;;;0.95;;
27722;SDS011;15123;-37.794;175.246;2023-04-05T03:07:01;4.85;;;0.80;;
27722;SDS011;15123;-37.794;175.246;2023-04-05T03:09:38;3.42;;;0.70;;
27722;SDS011;15123;-37.794;175.246;2023-04-05T03:12:09;4.38;;;0.88;;
27722;SDS011;15123;-37.794;175.246;2023-04-05T03:14:43;3.72;;;0.80;;
27722;SDS011;15123;-37.794;175.246;2023-04-05T03:17:17;8.25;;;4.68;;
27722;SDS011;15123;-37.794;175.246;2023-04-05T03:19:58;5.35;;;0.70;;
27722;SDS011;15123;-37.794;175.246;2023-04-05T03:22:31;5.63;;;0.80;;
27722;SDS011;15123;-37.794;175.246;2023-04-05T03:25:03;4.57;;;0.75;;
27722;SDS011;15123;-37.794;175.246;2023-04-05T03:27:42;4.57;;;0.70;;
27722;SDS011;15123;-37.794;175.246;2023-04-05T03:30:17;4.80;;;0.70;;
27722;SDS011;15123;-37.794;175.246;2023-04-05T03:32:55;3.92;;;0.60;;
27722;SDS011;15123;-37.794;175.246;2023-04-05T03:35:46;6.45;;;0.70;;
27722;SDS011;15123;-37.794;175.246;2023-04-05T03:38:18;2.83;;;0.60;;
27722;SDS011;15123;-37.794;175.246;2023-04-05T03:41:06;5.43;;;0.65;;
27722;SDS011;15123;-37.794;175.246;2023-04-05T03:43:38;4.07;;;0.70;;
27722;SDS011;15123;-37.794;175.246;2023-04-05T03:46:09;3.50;;;0.60;;
27722;SDS011;15123;-37.794;175.246;2023-04-05T03:48:41;4.05;;;0.60;;
27722;SDS011;15123;-37.794;175.246;2023-04-05T03:51:12;3.67;;;0.60;;
27722;SDS011;15123;-37.794;175.246;2023-04-05T03:53:44;3.67;;;0.60;;
27722;SDS011;15123;-37.794;175.246;2023-04-05T03:56:16;5.03;;;0.85;;
27722;SDS011;15123;-37.794;175.246;2023-04-05T03:58:49;3.25;;;0.60;;
27722;SDS011;15123;-37.794;175.246;2023-04-05T04:01:25;5.50;;;0.70;;
27722;SDS011;15123;-37.794;175.246;2023-04-05T04:03:57;5.20;;;0.70;;
27722;SDS011;15123;-37.794;175.246;2023-04-05T04:06:29;4.82;;;0.70;;
27722;SDS011;15123;-37.794;175.246;2023-04-05T04:09:02;3.72;;;0.70;;
27722;SDS011;15123;-37.794;175.246;2023-04-05T04:11:34;4.70;;;0.70;;
27722;SDS011;15123;-37.794;175.246;2023-04-05T04:14:06;6.80;;;0.70;;
27722;SDS011;15123;-37.794;175.246;2023-04-05T04:17:10;5.25;;;0.63;;
27722;SDS011;15123;-37.794;175.246;2023-04-05T04:20:03;3.38;;;0.60;;
27722;SDS011;15123;-37.794;175.246;2023-04-05T04:22:50;4.90;;;0.70;;
27722;SDS011;15123;-37.794;175.246;2023-04-05T04:25:51;5.13;;;0.67;;
27722;SDS011;15123;-37.794;175.246;2023-04-05T04:28:47;4.47;;;0.60;;
27722;SDS011;15123;-37.794;175.246;2023-04-05T04:31:39;4.38;;;0.60;;
27722;SDS011;15123;-37.794;175.246;2023-04-05T04:34:32;2.72;;;0.60;;
27722;SDS011;15123;-37.794;175.246;2023-04-05T04:37:29;4.00;;;0.60;;
27722;SDS011;15123;-37.794;175.246;2023-04-05T04:40:29;4.10;;;0.90;;
27722;SDS011;15123;-37.794;175.246;2023-04-05T04:43:23;8.57;;;2.05;;
27722;SDS011;15123;-37.794;175.246;2023-04-05T04:46:28;6.78;;;2.15;;
27722;SDS011;15123;-37.794;175.246;2023-04-05T04:49:09;4.50;;;0.90;;
27722;SDS011;15123;-37.794;175.246;2023-04-05T04:51:45;6.75;;;2.05;;
27722;SDS011;15123;-37.794;175.246;2023-04-05T04:54:20;6.65;;;1.33;;
27722;SDS011;15123;-37.794;175.246;2023-04-05T04:56:51;4.43;;;0.85;;
27722;SDS011;15123;-37.794;175.246;2023-04-05T04:59:22;10.85;;;2.95;;
27722;SDS011;15123;-37.794;175.246;2023-04-05T05:01:54;5.53;;;0.88;;
27722;SDS011;15123;-37.794;175.246;2023-04-05T05:04:26;6.28;;;0.80;;
27722;SDS011;15123;-37.794;175.246;2023-04-05T05:06:57;7.82;;;1.60;;
27722;SDS011;15123;-37.794;175.246;2023-04-05T05:09:28;6.40;;;1.30;;
27722;SDS011;15123;-37.794;175.246;2023-04-05T05:11:59;5.55;;;0.70;;
27722;SDS011;15123;-37.794;175.246;2023-04-05T05:14:31;6.28;;;0.80;;
27722;SDS011;15123;-37.794;175.246;2023-04-05T05:17:02;5.32;;;0.90;;
27722;SDS011;15123;-37.794;175.246;2023-04-05T05:19:35;3.88;;;0.88;;
27722;SDS011;15123;-37.794;175.246;2023-04-05T05:24:37;3.28;;;0.60;;
27722;SDS011;15123;-37.794;175.246;2023-04-05T05:27:09;5.80;;;0.93;;
27722;SDS011;15123;-37.794;175.246;2023-04-05T05:29:40;4.57;;;0.63;;
27722;SDS011;15123;-37.794;175.246;2023-04-05T05:32:11;3.03;;;0.55;;
27722;SDS011;15123;-37.794;175.246;2023-04-05T05:34:44;4.95;;;0.73;;
27722;SDS011;15123;-37.794;175.246;2023-04-05T05:37:17;4.22;;;0.65;;
27722;SDS011;15123;-37.794;175.246;2023-04-05T05:39:49;3.78;;;0.80;;
27722;SDS011;15123;-37.794;175.246;2023-04-05T05:42:20;6.63;;;0.80;;
27722;SDS011;15123;-37.794;175.246;2023-04-05T05:44:51;5.18;;;0.90;;
27722;SDS011;15123;-37.794;175.246;2023-04-05T05:47:24;3.67;;;0.73;;
27722;SDS011;15123;-37.794;175.246;2023-04-05T05:49:55;5.38;;;0.68;;
27722;SDS011;15123;-37.794;175.246;2023-04-05T05:52:26;5.22;;;0.80;;
27722;SDS011;15123;-37.794;175.246;2023-04-05T05:54:58;5.70;;;0.80;;
27722;SDS011;15123;-37.794;175.246;2023-04-05T05:57:30;6.72;;;0.82;;
27722;SDS011;15123;-37.794;175.246;2023-04-05T06:00:01;4.72;;;0.90;;
27722;SDS011;15123;-37.794;175.246;2023-04-05T06:02:41;5.55;;;1.27;;
27722;SDS011;15123;-37.794;175.246;2023-04-05T06:05:12;8.05;;;2.22;;
27722;SDS011;15123;-37.794;175.246;2023-04-05T06:07:44;9.70;;;2.97;;
27722;SDS011;15123;-37.794;175.246;2023-04-05T06:12:46;8.43;;;1.77;;
27722;SDS011;15123;-37.794;175.246;2023-04-05T06:15:18;10.43;;;1.70;;
27722;SDS011;15123;-37.794;175.246;2023-04-05T06:20:20;7.72;;;1.40;;
27722;SDS011;15123;-37.794;175.246;2023-04-05T06:22:51;4.30;;;1.10;;
27722;SDS011;15123;-37.794;175.246;2023-04-05T06:25:22;6.93;;;0.98;;
27722;SDS011;15123;-37.794;175.246;2023-04-05T06:27:53;5.13;;;0.70;;
27722;SDS011;15123;-37.794;175.246;2023-04-05T06:30:24;6.47;;;1.98;;
27722;SDS011;15123;-37.794;175.246;2023-04-05T06:35:27;5.70;;;1.10;;
27722;SDS011;15123;-37.794;175.246;2023-04-05T06:37:58;5.10;;;0.80;;
27722;SDS011;15123;-37.794;175.246;2023-04-05T06:40:31;5.65;;;0.80;;
27722;SDS011;15123;-37.794;175.246;2023-04-05T06:43:02;5.18;;;0.90;;
27722;SDS011;15123;-37.794;175.246;2023-04-05T06:45:34;5.13;;;0.90;;
27722;SDS011;15123;-37.794;175.246;2023-04-05T06:48:06;5.38;;;1.02;;
27722;SDS011;15123;-37.794;175.246;2023-04-05T06:50:37;7.38;;;0.90;;
27722;SDS011;15123;-37.794;175.246;2023-04-05T06:53:09;4.05;;;0.70;;
27722;SDS011;15123;-37.794;175.246;2023-04-05T06:55:48;7.38;;;0.98;;
27722;SDS011;15123;-37.794;175.246;2023-04-05T06:58:53;4.18;;;0.70;;
27722;SDS011;15123;-37.794;175.246;2023-04-05T07:01:24;7.78;;;0.90;;
27722;SDS011;15123;-37.794;175.246;2023-04-05T07:03:56;5.93;;;1.00;;
27722;SDS011;15123;-37.794;175.246;2023-04-05T07:06:27;6.40;;;1.08;;
27722;SDS011;15123;-37.794;175.246;2023-04-05T07:08:58;7.88;;;0.82;;
27722;SDS011;15123;-37.794;175.246;2023-04-05T07:11:30;5.68;;;0.80;;
27722;SDS011;15123;-37.794;175.246;2023-04-05T07:14:02;5.60;;;0.80;;
27722;SDS011;15123;-37.794;175.246;2023-04-05T07:16:34;5.28;;;0.90;;
27722;SDS011;15123;-37.794;175.246;2023-04-05T07:19:05;4.55;;;0.82;;
27722;SDS011;15123;-37.794;175.246;2023-04-05T07:21:36;4.00;;;0.88;;
27722;SDS011;15123;-37.794;175.246;2023-04-05T07:24:07;5.60;;;0.98;;
27722;SDS011;15123;-37.794;175.246;2023-04-05T07:26:39;5.43;;;0.80;;
27722;SDS011;15123;-37.794;175.246;2023-04-05T07:29:10;5.85;;;0.98;;
27722;SDS011;15123;-37.794;175.246;2023-04-05T07:31:42;4.60;;;0.73;;
27722;SDS011;15123;-37.794;175.246;2023-04-05T07:34:13;4.70;;;0.70;;
27722;SDS011;15123;-37.794;175.246;2023-04-05T07:36:44;5.93;;;1.10;;
27722;SDS011;15123;-37.794;175.246;2023-04-05T07:39:16;7.32;;;0.98;;
27722;SDS011;15123;-37.794;175.246;2023-04-05T07:41:49;6.53;;;0.93;;
27722;SDS011;15123;-37.794;175.246;2023-04-05T07:44:20;7.18;;;0.85;;
27722;SDS011;15123;-37.794;175.246;2023-04-05T07:46:51;4.15;;;0.73;;
27722;SDS011;15123;-37.794;175.246;2023-04-05T07:49:24;7.45;;;0.90;;
27722;SDS011;15123;-37.794;175.246;2023-04-05T07:51:56;6.82;;;0.80;;
27722;SDS011;15123;-37.794;175.246;2023-04-05T07:54:29;5.93;;;0.90;;
27722;SDS011;15123;-37.794;175.246;2023-04-05T07:57:02;5.57;;;0.80;;
27722;SDS011;15123;-37.794;175.246;2023-04-05T07:59:34;3.80;;;0.73;;
27722;SDS011;15123;-37.794;175.246;2023-04-05T08:02:06;5.65;;;0.80;;
27722;SDS011;15123;-37.794;175.246;2023-04-05T08:04:42;7.60;;;0.80;;
27722;SDS011;15123;-37.794;175.246;2023-04-05T08:07:13;6.28;;;0.93;;
27722;SDS011;15123;-37.794;175.246;2023-04-05T08:09:44;6.25;;;1.23;;
27722;SDS011;15123;-37.794;175.246;2023-04-05T08:12:15;11.63;;;3.55;;
27722;SDS011;15123;-37.794;175.246;2023-04-05T08:14:47;14.57;;;4.95;;
27722;SDS011;15123;-37.794;175.246;2023-04-05T08:17:18;11.80;;;4.18;;
27722;SDS011;15123;-37.794;175.246;2023-04-05T08:19:50;13.80;;;5.50;;
27722;SDS011;15123;-37.794;175.246;2023-04-05T08:22:22;15.70;;;5.97;;
27722;SDS011;15123;-37.794;175.246;2023-04-05T08:24:56;14.02;;;5.95;;
27722;SDS011;15123;-37.794;175.246;2023-04-05T08:27:28;11.40;;;4.20;;
27722;SDS011;15123;-37.794;175.246;2023-04-05T08:30:00;6.22;;;1.85;;
27722;SDS011;15123;-37.794;175.246;2023-04-05T08:32:31;8.38;;;1.30;;
27722;SDS011;15123;-37.794;175.246;2023-04-05T08:35:03;4.93;;;1.13;;
27722;SDS011;15123;-37.794;175.246;2023-04-05T08:37:35;5.93;;;1.30;;
27722;SDS011;15123;-37.794;175.246;2023-04-05T08:40:07;6.95;;;1.27;;
27722;SDS011;15123;-37.794;175.246;2023-04-05T08:42:45;5.07;;;0.90;;
27722;SDS011;15123;-37.794;175.246;2023-04-05T08:45:22;6.40;;;1.83;;
27722;SDS011;15123;-37.794;175.246;2023-04-05T08:47:54;8.98;;;1.75;;
27722;SDS011;15123;-37.794;175.246;2023-04-05T08:50:26;5.28;;;1.17;;
27722;SDS011;15123;-37.794;175.246;2023-04-05T08:52:58;6.90;;;1.15;;
27722;SDS011;15123;-37.794;175.246;2023-04-05T08:55:29;4.05;;;0.98;;
27722;SDS011;15123;-37.794;175.246;2023-04-05T08:58:00;5.80;;;1.10;;
27722;SDS011;15123;-37.794;175.246;2023-04-05T09:00:36;5.90;;;1.00;;
27722;SDS011;15123;-37.794;175.246;2023-04-05T09:03:12;4.00;;;0.80;;
27722;SDS011;15123;-37.794;175.246;2023-04-05T09:05:48;4.95;;;1.00;;
27722;SDS011;15123;-37.794;175.246;2023-04-05T09:08:20;5.30;;;1.00;;
27722;SDS011;15123;-37.794;175.246;2023-04-05T09:10:52;5.30;;;1.05;;
27722;SDS011;15123;-37.794;175.246;2023-04-05T09:15:55;6.45;;;1.92;;
27722;SDS011;15123;-37.794;175.246;2023-04-05T09:18:26;7.15;;;2.08;;
27722;SDS011;15123;-37.794;175.246;2023-04-05T09:21:01;14.75;;;1.83;;
27722;SDS011;15123;-37.794;175.246;2023-04-05T09:23:36;7.30;;;1.88;;
27722;SDS011;15123;-37.794;175.246;2023-04-05T09:26:17;6.40;;;1.42;;
27722;SDS011;15123;-37.794;175.246;2023-04-05T09:28:54;8.05;;;2.25;;
27722;SDS011;15123;-37.794;175.246;2023-04-05T09:31:29;8.20;;;1.85;;
27722;SDS011;15123;-37.794;175.246;2023-04-05T09:34:06;6.90;;;1.60;;
27722;SDS011;15123;-37.794;175.246;2023-04-05T09:36:42;7.82;;;1.77;;
27722;SDS011;15123;-37.794;175.246;2023-04-05T09:39:14;11.60;;;2.92;;
27722;SDS011;15123;-37.794;175.246;2023-04-05T09:42:23;12.65;;;3.58;;
27722;SDS011;15123;-37.794;175.246;2023-04-05T09:44:55;8.35;;;2.45;;
27722;SDS011;15123;-37.794;175.246;2023-04-05T09:47:37;6.20;;;1.50;;
27722;SDS011;15123;-37.794;175.246;2023-04-05T09:50:18;19.75;;;7.38;;
27722;SDS011;15123;-37.794;175.246;2023-04-05T09:53:04;9.27;;;2.30;;
27722;SDS011;15123;-37.794;175.246;2023-04-05T09:55:46;8.20;;;2.10;;
27722;SDS011;15123;-37.794;175.246;2023-04-05T09:58:18;7.22;;;1.85;;
27722;SDS011;15123;-37.794;175.246;2023-04-05T10:00:51;7.13;;;1.50;;
27722;SDS011;15123;-37.794;175.246;2023-04-05T10:03:47;8.60;;;1.60;;
27722;SDS011;15123;-37.794;175.246;2023-04-05T10:06:19;8.93;;;2.20;;
27722;SDS011;15123;-37.794;175.246;2023-04-05T10:08:51;8.20;;;1.80;;
27722;SDS011;15123;-37.794;175.246;2023-04-05T10:11:22;9.70;;;2.40;;
27722;SDS011;15123;-37.794;175.246;2023-04-05T10:13:53;7.75;;;1.83;;
27722;SDS011;15123;-37.794;175.246;2023-04-05T10:16:25;7.55;;;1.67;;
27722;SDS011;15123;-37.794;175.246;2023-04-05T10:18:58;6.65;;;1.70;;
27722;SDS011;15123;-37.794;175.246;2023-04-05T10:21:32;6.07;;;1.38;;
27722;SDS011;15123;-37.794;175.246;2023-04-05T10:24:17;8.68;;;1.90;;
27722;SDS011;15123;-37.794;175.246;2023-04-05T10:27:03;8.82;;;2.10;;
27722;SDS011;15123;-37.794;175.246;2023-04-05T10:35:40;7.57;;;1.75;;
27722;SDS011;15123;-37.794;175.246;2023-04-05T10:38:34;8.85;;;2.08;;
27722;SDS011;15123;-37.794;175.246;2023-04-05T10:41:34;7.60;;;2.28;;
27722;SDS011;15123;-37.794;175.246;2023-04-05T10:44:09;6.50;;;1.73;;
27722;SDS011;15123;-37.794;175.246;2023-04-05T10:46:53;7.85;;;2.58;;
27722;SDS011;15123;-37.794;175.246;2023-04-05T10:52:09;8.23;;;2.88;;
27722;SDS011;15123;-37.794;175.246;2023-04-05T10:55:19;8.82;;;2.22;;
27722;SDS011;15123;-37.794;175.246;2023-04-05T10:57:50;7.47;;;1.95;;
27722;SDS011;15123;-37.794;175.246;2023-04-05T11:00:22;9.18;;;2.25;;
27722;SDS011;15123;-37.794;175.246;2023-04-05T11:02:53;8.10;;;1.88;;
27722;SDS011;15123;-37.794;175.246;2023-04-05T11:08:05;6.05;;;1.42;;
27722;SDS011;15123;-37.794;175.246;2023-04-05T11:10:38;7.07;;;1.75;;
27722;SDS011;15123;-37.794;175.246;2023-04-05T11:13:09;5.03;;;1.20;;
27722;SDS011;15123;-37.794;175.246;2023-04-05T11:15:41;7.35;;;1.50;;
27722;SDS011;15123;-37.794;175.246;2023-04-05T11:23:22;6.80;;;1.70;;
27722;SDS011;15123;-37.794;175.246;2023-04-05T11:25:55;8.10;;;1.60;;
27722;SDS011;15123;-37.794;175.246;2023-04-05T11:28:36;6.90;;;1.40;;
27722;SDS011;15123;-37.794;175.246;2023-04-05T11:31:18;8.07;;;1.70;;
27722;SDS011;15123;-37.794;175.246;2023-04-05T11:33:55;8.35;;;2.10;;
27722;SDS011;15123;-37.794;175.246;2023-04-05T11:44:23;5.85;;;1.70;;
27722;SDS011;15123;-37.794;175.246;2023-04-05T11:46:54;7.90;;;1.48;;
27722;SDS011;15123;-37.794;175.246;2023-04-05T11:49:26;7.53;;;1.50;;
27722;SDS011;15123;-37.794;175.246;2023-04-05T11:52:08;6.35;;;1.50;;
27722;SDS011;15123;-37.794;175.246;2023-04-05T11:54:40;14.68;;;5.75;;
27722;SDS011;15123;-37.794;175.246;2023-04-05T11:57:19;10.32;;;2.92;;
27722;SDS011;15123;-37.794;175.246;2023-04-05T11:59:51;7.38;;;2.13;;
27722;SDS011;15123;-37.794;175.246;2023-04-05T12:02:23;7.55;;;3.00;;
27722;SDS011;15123;-37.794;175.246;2023-04-05T12:07:28;8.20;;;2.25;;
27722;SDS011;15123;-37.794;175.246;2023-04-05T12:10:06;7.65;;;1.95;;
27722;SDS011;15123;-37.794;175.246;2023-04-05T12:12:41;7.50;;;2.70;;
27722;SDS011;15123;-37.794;175.246;2023-04-05T12:15:14;7.55;;;2.53;;
27722;SDS011;15123;-37.794;175.246;2023-04-05T12:17:49;6.50;;;1.70;;
27722;SDS011;15123;-37.794;175.246;2023-04-05T12:20:23;5.82;;;1.77;;
27722;SDS011;15123;-37.794;175.246;2023-04-05T12:22:55;7.40;;;2.00;;
27722;SDS011;15123;-37.794;175.246;2023-04-05T12:25:27;6.57;;;1.60;;
27722;SDS011;15123;-37.794;175.246;2023-04-05T12:28:05;10.50;;;2.00;;
27722;SDS011;15123;-37.794;175.246;2023-04-05T12:30:47;7.97;;;1.70;;
27722;SDS011;15123;-37.794;175.246;2023-04-05T12:33:34;7.95;;;1.70;;
27722;SDS011;15123;-37.794;175.246;2023-04-05T12:36:10;9.15;;;1.92;;
27722;SDS011;15123;-37.794;175.246;2023-04-05T12:38:44;5.28;;;1.40;;
27722;SDS011;15123;-37.794;175.246;2023-04-05T12:41:17;8.30;;;1.83;;
27722;SDS011;15123;-37.794;175.246;2023-04-05T12:43:58;6.25;;;1.63;;
27722;SDS011;15123;-37.794;175.246;2023-04-05T12:46:43;6.97;;;1.38;;
27722;SDS011;15123;-37.794;175.246;2023-04-05T12:49:16;5.40;;;1.80;;
27722;SDS011;15123;-37.794;175.246;2023-04-05T12:51:47;7.95;;;1.77;;
27722;SDS011;15123;-37.794;175.246;2023-04-05T12:54:22;9.38;;;1.70;;
27722;SDS011;15123;-37.794;175.246;2023-04-05T12:56:53;7.45;;;1.70;;
27722;SDS011;15123;-37.794;175.246;2023-04-05T12:59:25;8.88;;;2.30;;
27722;SDS011;15123;-37.794;175.246;2023-04-05T13:01:57;9.75;;;2.15;;
27722;SDS011;15123;-37.794;175.246;2023-04-05T13:06:59;6.18;;;1.55;;
27722;SDS011;15123;-37.794;175.246;2023-04-05T13:09:30;7.05;;;1.70;;
27722;SDS011;15123;-37.794;175.246;2023-04-05T13:12:04;7.38;;;1.75;;
27722;SDS011;15123;-37.794;175.246;2023-04-05T13:14:35;9.30;;;1.90;;
27722;SDS011;15123;-37.794;175.246;2023-04-05T13:17:07;5.03;;;1.50;;
27722;SDS011;15123;-37.794;175.246;2023-04-05T13:19:38;7.03;;;2.03;;
27722;SDS011;15123;-37.794;175.246;2023-04-05T13:22:10;6.53;;;1.50;;
27722;SDS011;15123;-37.794;175.246;2023-04-05T13:24:41;7.53;;;1.30;;
27722;SDS011;15123;-37.794;175.246;2023-04-05T13:27:12;7.53;;;1.60;;
27722;SDS011;15123;-37.794;175.246;2023-04-05T13:29:44;5.78;;;1.40;;
27722;SDS011;15123;-37.794;175.246;2023-04-05T13:32:15;7.15;;;1.40;;
27722;SDS011;15123;-37.794;175.246;2023-04-05T13:34:46;3.72;;;1.05;;
27722;SDS011;15123;-37.794;175.246;2023-04-05T13:37:18;6.20;;;1.38;;
27722;SDS011;15123;-37.794;175.246;2023-04-05T13:39:50;7.65;;;1.40;;
27722;SDS011;15123;-37.794;175.246;2023-04-05T13:42:21;6.15;;;1.50;;
27722;SDS011;15123;-37.794;175.246;2023-04-05T13:44:53;8.13;;;1.63;;
27722;SDS011;15123;-37.794;175.246;2023-04-05T13:47:25;7.53;;;1.50;;
27722;SDS011;15123;-37.794;175.246;2023-04-05T13:49:56;7.35;;;1.60;;
27722;SDS011;15123;-37.794;175.246;2023-04-05T13:52:28;7.57;;;1.77;;
27722;SDS011;15123;-37.794;175.246;2023-04-05T13:55:00;8.38;;;1.70;;
27722;SDS011;15123;-37.794;175.246;2023-04-05T13:57:31;8.23;;;2.28;;
27722;SDS011;15123;-37.794;175.246;2023-04-05T14:02:40;6.38;;;1.50;;
27722;SDS011;15123;-37.794;175.246;2023-04-05T14:07:44;10.48;;;3.53;;
27722;SDS011;15123;-37.794;175.246;2023-04-05T14:10:15;10.25;;;4.13;;
27722;SDS011;15123;-37.794;175.246;2023-04-05T14:12:49;8.10;;;1.98;;
27722;SDS011;15123;-37.794;175.246;2023-04-05T14:15:21;8.27;;;1.58;;
27722;SDS011;15123;-37.794;175.246;2023-04-05T14:17:53;4.70;;;1.20;;
27722;SDS011;15123;-37.794;175.246;2023-04-05T14:20:25;7.25;;;1.90;;
27722;SDS011;15123;-37.794;175.246;2023-04-05T14:22:56;12.82;;;4.47;;
27722;SDS011;15123;-37.794;175.246;2023-04-05T14:25:30;7.57;;;2.08;;
27722;SDS011;15123;-37.794;175.246;2023-04-05T14:28:01;6.63;;;1.60;;
27722;SDS011;15123;-37.794;175.246;2023-04-05T14:30:43;6.78;;;1.77;;
27722;SDS011;15123;-37.794;175.246;2023-04-05T14:33:15;9.13;;;1.60;;
27722;SDS011;15123;-37.794;175.246;2023-04-05T14:35:52;6.38;;;1.63;;
27722;SDS011;15123;-37.794;175.246;2023-04-05T14:40:54;7.80;;;1.65;;
27722;SDS011;15123;-37.794;175.246;2023-04-05T14:43:26;6.60;;;1.50;;
27722;SDS011;15123;-37.794;175.246;2023-04-05T14:50:39;6.97;;;2.00;;
27722;SDS011;15123;-37.794;175.246;2023-04-05T14:56:40;7.20;;;2.10;;
27722;SDS011;15123;-37.794;175.246;2023-04-05T14:59:12;5.97;;;1.90;;
27722;SDS011;15123;-37.794;175.246;2023-04-05T15:04:15;7.65;;;2.00;;
27722;SDS011;15123;-37.794;175.246;2023-04-05T15:06:47;8.10;;;1.90;;
27722;SDS011;15123;-37.794;175.246;2023-04-05T15:09:18;6.03;;;1.67;;
27722;SDS011;15123;-37.794;175.246;2023-04-05T15:11:49;7.75;;;1.83;;
27722;SDS011;15123;-37.794;175.246;2023-04-05T15:14:22;7.85;;;2.13;;
27722;SDS011;15123;-37.794;175.246;2023-04-05T15:16:59;9.18;;;2.10;;
27722;SDS011;15123;-37.794;175.246;2023-04-05T15:19:31;8.43;;;2.00;;
27722;SDS011;15123;-37.794;175.246;2023-04-05T15:22:04;7.88;;;2.17;;
27722;SDS011;15123;-37.794;175.246;2023-04-05T15:27:07;9.32;;;1.63;;
27722;SDS011;15123;-37.794;175.246;2023-04-05T15:29:38;7.30;;;1.95;;
27722;SDS011;15123;-37.794;175.246;2023-04-05T15:32:09;10.67;;;2.40;;
27722;SDS011;15123;-37.794;175.246;2023-04-05T15:34:40;7.63;;;2.30;;
27722;SDS011;15123;-37.794;175.246;2023-04-05T15:37:12;7.80;;;2.50;;
27722;SDS011;15123;-37.794;175.246;2023-04-05T15:39:43;10.15;;;2.47;;
27722;SDS011;15123;-37.794;175.246;2023-04-05T15:42:15;11.38;;;2.90;;
27722;SDS011;15123;-37.794;175.246;2023-04-05T15:44:47;9.75;;;2.63;;
27722;SDS011;15123;-37.794;175.246;2023-04-05T15:47:19;7.22;;;2.30;;
27722;SDS011;15123;-37.794;175.246;2023-04-05T15:49:50;7.95;;;2.15;;
27722;SDS011;15123;-37.794;175.246;2023-04-05T15:52:21;11.35;;;2.55;;
27722;SDS011;15123;-37.794;175.246;2023-04-05T15:54:53;7.78;;;2.20;;
27722;SDS011;15123;-37.794;175.246;2023-04-05T15:59:55;8.43;;;2.42;;
27722;SDS011;15123;-37.794;175.246;2023-04-05T16:02:29;7.32;;;1.95;;
27722;SDS011;15123;-37.794;175.246;2023-04-05T16:05:00;8.93;;;2.28;;
27722;SDS011;15123;-37.794;175.246;2023-04-05T16:07:31;7.43;;;2.00;;
27722;SDS011;15123;-37.794;175.246;2023-04-05T16:10:03;8.38;;;2.15;;
27722;SDS011;15123;-37.794;175.246;2023-04-05T16:12:36;9.10;;;2.58;;
27722;SDS011;15123;-37.794;175.246;2023-04-05T16:15:08;9.18;;;2.50;;